createdAt,value
2018-10-12T00:00:18.245Z,92.80
2018-10-12T00:02:23.504Z,92.90
2018-10-12T00:04:34.014Z,93.10
2018-10-12T00:06:40.717Z,93.00
2018-10-12T00:08:45.560Z,93.00
2018-10-12T00:10:51.588Z,93.00
2018-10-12T00:12:56.470Z,93.10
2018-10-12T00:15:01.365Z,93.20
2018-10-12T00:17:07.352Z,93.90
2018-10-12T00:19:13.803Z,94.20
2018-10-12T00:21:18.694Z,94.10
2018-10-12T00:23:25.895Z,93.80
2018-10-12T00:25:33.554Z,93.80
2018-10-12T00:27:38.340Z,93.60
2018-10-12T00:29:46.880Z,93.70
2018-10-12T00:31:52.517Z,93.60
2018-10-12T00:33:57.899Z,93.40
2018-10-12T00:36:04.471Z,93.40
2018-10-12T00:38:09.676Z,93.60
2018-10-12T00:40:14.510Z,93.40
2018-10-12T00:42:22.396Z,93.50
2018-10-12T00:44:26.837Z,93.50
2018-10-12T00:46:31.645Z,93.60
2018-10-12T00:48:38.189Z,93.40
2018-10-12T00:50:43.046Z,93.40
2018-10-12T00:52:48.036Z,93.30
2018-10-12T00:54:52.820Z,93.20
2018-10-12T00:57:01.770Z,93.10
2018-10-12T00:59:06.829Z,93.00
2018-10-12T01:01:12.968Z,93.00
2018-10-12T01:03:17.855Z,93.10
2018-10-12T01:05:22.164Z,93.00
2018-10-12T01:07:29.123Z,93.00
2018-10-12T01:09:39.947Z,93.00
2018-10-12T01:11:46.196Z,92.80
2018-10-12T01:13:53.443Z,92.70
2018-10-12T01:15:58.225Z,92.90
2018-10-12T01:18:03.486Z,93.00
2018-10-12T01:20:11.778Z,93.10
2018-10-12T01:22:20.157Z,93.00
2018-10-12T01:24:29.035Z,93.00
2018-10-12T01:26:33.991Z,93.00
2018-10-12T01:28:40.105Z,92.90
2018-10-12T01:30:45.467Z,93.00
2018-10-12T01:32:55.972Z,93.10
2018-10-12T01:35:00.780Z,93.10
2018-10-12T01:37:07.232Z,93.10
2018-10-12T01:39:13.818Z,93.10
2018-10-12T01:41:19.995Z,93.20
2018-10-12T01:43:26.275Z,93.10
2018-10-12T01:45:35.442Z,93.20
2018-10-12T01:47:40.144Z,93.30
2018-10-12T01:49:45.691Z,93.40
2018-10-12T01:51:56.257Z,93.50
2018-10-12T01:54:00.411Z,93.60
2018-10-12T01:56:13.062Z,93.60
2018-10-12T01:58:23.235Z,93.80
2018-10-12T02:00:29.821Z,94.00
2018-10-12T02:02:37.021Z,94.00
2018-10-12T02:06:59.076Z,93.80
2018-10-12T02:09:03.744Z,94.10
2018-10-12T02:11:10.585Z,94.00
2018-10-12T02:13:17.180Z,94.10
2018-10-12T02:15:23.693Z,94.00
2018-10-12T02:17:28.852Z,94.00
2018-10-12T02:19:33.122Z,94.00
2018-10-12T02:21:38.150Z,94.00
2018-10-12T02:23:43.377Z,94.20
2018-10-12T02:25:48.234Z,94.50
2018-10-12T02:27:52.386Z,94.50
2018-10-12T02:29:57.241Z,94.40
2018-10-12T02:32:02.663Z,94.20
2018-10-12T02:34:07.552Z,94.10
2018-10-12T02:36:13.340Z,94.30
2018-10-12T02:38:18.287Z,94.50
2018-10-12T02:40:22.469Z,94.30
2018-10-12T02:42:31.611Z,94.30
2018-10-12T02:44:36.362Z,94.30
2018-10-12T02:46:42.449Z,94.40
2018-10-12T02:48:50.231Z,94.40
2018-10-12T02:50:56.332Z,94.30
2018-10-12T02:53:01.329Z,94.50
2018-10-12T02:55:06.367Z,94.60
2018-10-12T02:57:11.702Z,95.00
2018-10-12T02:59:16.713Z,95.00
2018-10-12T03:01:23.623Z,94.90
2018-10-12T03:03:29.038Z,94.50
2018-10-12T03:05:33.924Z,94.50
2018-10-12T03:07:39.052Z,94.60
2018-10-12T03:09:44.420Z,94.80
2018-10-12T03:11:49.626Z,94.90
2018-10-12T03:13:57.404Z,94.90
2018-10-12T03:16:04.210Z,94.70
2018-10-12T03:18:09.984Z,94.90
2018-10-12T03:20:14.632Z,95.00
2018-10-12T03:22:20.262Z,95.20
2018-10-12T03:24:25.927Z,95.20
2018-10-12T03:26:31.695Z,95.40
2018-10-12T03:28:37.242Z,95.40
2018-10-12T03:30:43.912Z,95.60
2018-10-12T03:32:49.517Z,95.70
2018-10-12T03:34:55.254Z,95.40
2018-10-12T03:37:02.468Z,95.50
2018-10-12T03:39:08.836Z,95.70
2018-10-12T03:41:15.016Z,95.50
2018-10-12T03:43:22.387Z,95.70
2018-10-12T03:45:27.479Z,95.80
2018-10-12T03:47:31.638Z,96.00
2018-10-12T03:49:36.326Z,96.60
2018-10-12T03:51:41.875Z,96.70
2018-10-12T03:53:47.137Z,96.90
2018-10-12T03:55:51.888Z,96.90
2018-10-12T03:57:56.662Z,97.00
2018-10-12T04:00:03.879Z,97.20
2018-10-12T04:02:08.053Z,97.30
2018-10-12T04:04:13.462Z,97.20
2018-10-12T04:06:18.876Z,97.30
2018-10-12T04:08:23.712Z,97.30
2018-10-12T04:10:29.173Z,97.40
2018-10-12T04:12:35.465Z,97.50
2018-10-12T04:14:41.873Z,97.40
2018-10-12T04:16:47.275Z,97.70
2018-10-12T04:18:59.119Z,97.60
2018-10-12T04:21:05.157Z,97.50
2018-10-12T04:23:10.455Z,97.50
2018-10-12T04:25:16.773Z,97.40
2018-10-12T04:27:21.993Z,97.40
2018-10-12T04:29:26.848Z,97.30
2018-10-12T04:31:32.303Z,97.30
2018-10-12T04:33:37.150Z,97.10
2018-10-12T04:35:42.010Z,97.00
2018-10-12T04:37:48.751Z,97.00
2018-10-12T04:40:04.889Z,97.00
2018-10-12T04:42:09.819Z,97.10
2018-10-12T04:44:17.303Z,96.80
2018-10-12T04:46:29.074Z,96.40
2018-10-12T04:48:34.200Z,96.50
2018-10-12T04:50:41.442Z,96.50
2018-10-12T04:52:47.112Z,96.70
2018-10-12T04:54:54.075Z,97.00
2018-10-12T04:57:00.830Z,97.10
2018-10-12T04:59:06.246Z,97.40
2018-10-12T05:01:12.555Z,97.50
2018-10-12T05:03:18.484Z,97.80
2018-10-12T05:05:23.485Z,98.70
2018-10-12T05:07:29.973Z,98.40
2018-10-12T05:09:35.523Z,98.00
2018-10-12T05:11:41.498Z,98.00
2018-10-12T05:13:46.848Z,98.30
2018-10-12T05:15:51.791Z,98.10
2018-10-12T05:17:56.868Z,98.00
2018-10-12T05:20:02.337Z,98.10
2018-10-12T05:22:07.334Z,98.00
2018-10-12T05:24:13.621Z,98.20
2018-10-12T05:26:18.118Z,98.20
2018-10-12T05:28:24.672Z,98.30
2018-10-12T05:30:29.601Z,98.20
2018-10-12T05:32:34.864Z,98.20
2018-10-12T05:34:40.191Z,98.20
2018-10-12T05:36:45.540Z,98.20
2018-10-12T05:38:49.981Z,98.20
2018-10-12T05:40:54.355Z,98.10
2018-10-12T05:43:00.457Z,98.10
2018-10-12T05:45:06.605Z,98.30
2018-10-12T05:47:12.234Z,98.10
2018-10-12T05:49:27.855Z,98.10
2018-10-12T05:51:32.721Z,98.10
2018-10-12T05:53:38.474Z,98.10
2018-10-12T05:55:44.007Z,98.00
2018-10-12T05:57:49.484Z,98.10
2018-10-12T05:59:54.638Z,98.00
2018-10-12T06:01:59.508Z,97.70
2018-10-12T06:04:04.677Z,97.80
2018-10-12T06:06:11.704Z,97.70
2018-10-12T06:08:17.236Z,97.80
2018-10-12T06:10:22.694Z,97.50
2018-10-12T06:12:27.538Z,97.30
2018-10-12T06:14:33.068Z,96.90
2018-10-12T06:16:37.523Z,96.90
2018-10-12T06:18:41.754Z,96.80
2018-10-12T06:20:46.559Z,96.60
2018-10-12T06:22:52.331Z,96.20
2018-10-12T06:24:59.951Z,95.80
2018-10-12T06:27:04.742Z,95.60
2018-10-12T06:29:10.753Z,95.30
2018-10-12T06:31:15.669Z,95.10
2018-10-12T06:33:20.037Z,95.10
2018-10-12T06:35:32.008Z,94.90
2018-10-12T06:37:36.749Z,95.00
2018-10-12T06:39:41.649Z,95.10
2018-10-12T06:41:48.114Z,95.20
2018-10-12T06:43:52.881Z,95.30
2018-10-12T06:45:57.873Z,95.50
2018-10-12T06:48:03.328Z,95.70
2018-10-12T06:50:08.259Z,95.50
2018-10-12T06:52:14.065Z,95.40
2018-10-12T06:54:20.992Z,95.00
2018-10-12T06:56:28.371Z,94.90
2018-10-12T06:58:33.519Z,94.70
2018-10-12T07:00:40.369Z,94.40
2018-10-12T07:02:45.583Z,94.40
2018-10-12T07:04:52.438Z,94.30
2018-10-12T07:07:03.330Z,94.00
2018-10-12T07:09:11.566Z,93.80
2018-10-12T07:11:16.690Z,93.60
2018-10-12T07:13:22.442Z,93.50
2018-10-12T07:15:27.355Z,93.70
2018-10-12T07:17:31.761Z,93.40
2018-10-12T07:19:36.437Z,93.40
2018-10-12T07:21:43.025Z,93.10
2018-10-12T07:23:47.998Z,92.80
2018-10-12T07:25:52.975Z,92.50
2018-10-12T07:27:58.731Z,92.10
2018-10-12T07:30:04.909Z,92.10
2018-10-12T07:32:10.385Z,91.90
2018-10-12T07:34:19.400Z,91.50
2018-10-12T07:36:24.276Z,91.00
2018-10-12T07:38:29.327Z,91.30
2018-10-12T07:40:36.528Z,90.50
2018-10-12T07:42:43.028Z,90.30
2018-10-12T07:44:48.439Z,90.60
2018-10-12T07:46:52.617Z,90.50
2018-10-12T07:48:59.019Z,90.60
2018-10-12T07:51:03.343Z,90.00
2018-10-12T07:53:09.277Z,89.80
2018-10-12T07:55:15.934Z,88.80
2018-10-12T07:57:25.279Z,88.10
2018-10-12T07:59:30.330Z,88.50
2018-10-12T08:01:35.632Z,89.10
2018-10-12T08:03:40.553Z,89.60
2018-10-12T08:05:46.509Z,88.30
2018-10-12T08:07:53.960Z,88.40
2018-10-12T08:10:00.496Z,88.30
2018-10-12T08:12:05.857Z,88.80
2018-10-12T08:14:14.711Z,88.20
2018-10-12T08:16:21.306Z,88.40
2018-10-12T08:18:28.923Z,87.80
2018-10-12T08:20:36.802Z,87.60
2018-10-12T08:22:42.722Z,88.00
2018-10-12T08:24:48.601Z,87.00
2018-10-12T08:26:55.170Z,86.80
2018-10-12T08:29:01.617Z,85.90
2018-10-12T08:31:06.582Z,85.10
2018-10-12T08:33:13.783Z,85.10
2018-10-12T08:35:19.275Z,84.70
2018-10-12T08:37:25.095Z,84.30
2018-10-12T08:39:29.651Z,83.50
2018-10-12T08:41:34.588Z,82.60
2018-10-12T08:43:42.110Z,81.70
2018-10-12T08:45:49.432Z,81.40
2018-10-12T08:47:54.747Z,81.30
2018-10-12T08:49:59.477Z,81.10
2018-10-12T08:52:04.703Z,80.30
2018-10-12T08:54:10.960Z,79.90
2018-10-12T08:56:15.697Z,78.90
2018-10-12T08:58:20.838Z,78.00
2018-10-12T09:00:25.755Z,77.90
2018-10-12T09:02:32.696Z,77.40
2018-10-12T09:05:07.182Z,77.20
2018-10-12T09:07:14.177Z,76.40
2018-10-12T09:09:18.749Z,75.40
2018-10-12T09:11:23.452Z,75.20
2018-10-12T09:13:29.803Z,74.70
2018-10-12T09:15:34.850Z,74.60
2018-10-12T09:17:41.040Z,74.50
2018-10-12T09:19:46.187Z,74.20
2018-10-12T09:21:51.160Z,73.70
2018-10-12T09:23:57.417Z,72.60
2018-10-12T09:26:03.268Z,72.50
2018-10-12T09:28:08.953Z,71.60
2018-10-12T09:30:16.920Z,71.40
2018-10-12T09:32:22.654Z,70.70
2018-10-12T09:34:28.439Z,70.70
2018-10-12T09:36:33.958Z,69.90
2018-10-12T09:38:39.741Z,70.00
2018-10-12T09:40:45.218Z,68.80
2018-10-12T09:42:49.437Z,68.60
2018-10-12T09:44:55.033Z,68.50
2018-10-12T09:47:00.571Z,68.50
2018-10-12T09:49:07.380Z,68.50
2018-10-12T09:51:13.315Z,68.00
2018-10-12T09:53:19.963Z,67.70
2018-10-12T09:55:28.198Z,67.40
2018-10-12T09:57:36.480Z,66.80
2018-10-12T09:59:43.622Z,66.70
2018-10-12T10:01:54.141Z,66.30
2018-10-12T10:04:05.706Z,65.80
2018-10-12T10:06:13.205Z,65.80
2018-10-12T10:08:18.515Z,66.20
2018-10-12T10:10:25.230Z,65.40
2018-10-12T10:12:30.268Z,65.10
2018-10-12T10:14:35.296Z,64.90
2018-10-12T10:16:41.046Z,64.10
2018-10-12T10:18:45.749Z,63.80
2018-10-12T10:20:51.701Z,62.80
2018-10-12T10:22:57.653Z,62.40
2018-10-12T10:25:02.287Z,62.00
2018-10-12T10:27:13.658Z,61.80
2018-10-12T10:29:20.837Z,61.70
2018-10-12T10:31:27.104Z,61.40
2018-10-12T10:33:32.529Z,61.60
2018-10-12T10:35:39.280Z,61.90
2018-10-12T10:37:44.276Z,62.10
2018-10-12T10:39:49.948Z,62.30
2018-10-12T10:41:55.048Z,62.60
2018-10-12T10:44:01.122Z,62.20
2018-10-12T10:46:10.901Z,62.10
2018-10-12T10:48:18.504Z,61.80
2018-10-12T10:50:24.536Z,61.10
2018-10-12T10:52:30.663Z,60.80
2018-10-12T10:54:35.676Z,60.70
2018-10-12T10:56:42.400Z,60.40
2018-10-12T10:58:49.120Z,60.30
2018-10-12T11:00:54.310Z,60.00
2018-10-12T11:03:01.783Z,59.70
2018-10-12T11:05:09.025Z,59.90
2018-10-12T11:07:14.747Z,59.60
2018-10-12T11:09:22.270Z,59.60
2018-10-12T11:11:27.878Z,59.70
2018-10-12T11:13:33.698Z,59.10
2018-10-12T11:15:41.597Z,58.70
2018-10-12T11:17:46.673Z,58.80
2018-10-12T11:19:51.264Z,58.90
2018-10-12T11:21:56.210Z,59.60
2018-10-12T11:24:05.044Z,60.30
2018-10-12T11:26:10.151Z,60.20
2018-10-12T11:28:17.078Z,60.50
2018-10-12T11:30:24.678Z,60.60
2018-10-12T11:32:31.184Z,60.50
2018-10-12T11:34:40.102Z,60.10
2018-10-12T11:36:47.080Z,60.70
2018-10-12T11:38:53.038Z,59.40
2018-10-12T11:40:58.231Z,60.00
2018-10-12T11:43:16.603Z,58.90
2018-10-12T11:45:25.538Z,58.80
2018-10-12T11:47:31.845Z,58.60
2018-10-12T11:49:37.754Z,58.30
2018-10-12T11:51:42.474Z,58.10
2018-10-12T11:53:53.644Z,57.80
2018-10-12T11:55:59.936Z,57.70
2018-10-12T11:58:06.457Z,57.40
2018-10-12T12:00:15.326Z,57.40
2018-10-12T12:02:24.277Z,56.70
2018-10-12T12:04:30.988Z,56.80
2018-10-12T12:06:36.603Z,56.90
2018-10-12T12:08:44.073Z,57.20
2018-10-12T12:10:48.690Z,57.30
2018-10-12T12:12:54.331Z,57.50
2018-10-12T12:15:04.477Z,57.20
2018-10-12T12:17:11.663Z,56.90
2018-10-12T12:19:20.336Z,56.80
2018-10-12T12:21:27.307Z,56.20
2018-10-12T12:23:34.136Z,55.60
2018-10-12T12:25:41.138Z,55.60
2018-10-12T12:27:46.715Z,55.30
2018-10-12T12:29:51.260Z,55.50
2018-10-12T12:31:56.237Z,55.90
2018-10-12T12:34:01.456Z,56.10
2018-10-12T12:36:09.680Z,56.50
2018-10-12T12:38:14.241Z,56.20
2018-10-12T12:40:21.041Z,55.80
2018-10-12T12:42:32.508Z,55.20
2018-10-12T12:44:39.652Z,54.50
2018-10-12T12:46:44.572Z,54.60
2018-10-12T12:48:50.593Z,54.90
2018-10-12T12:50:55.843Z,54.70
2018-10-12T12:53:02.190Z,54.60
2018-10-12T12:55:13.183Z,53.80
2018-10-12T12:57:19.300Z,53.70
2018-10-12T12:59:25.141Z,53.50
2018-10-12T13:01:32.543Z,53.00
2018-10-12T13:03:41.803Z,53.00
2018-10-12T13:06:09.779Z,53.20
2018-10-12T13:08:19.821Z,53.40
2018-10-12T13:10:29.937Z,53.50
2018-10-12T13:12:38.940Z,53.50
2018-10-12T13:14:50.051Z,53.80
2018-10-12T13:17:02.792Z,53.90
2018-10-12T13:19:10.484Z,53.40
2018-10-12T13:21:24.705Z,53.40
2018-10-12T13:23:39.168Z,53.30
2018-10-12T13:25:44.768Z,53.50
2018-10-12T13:27:54.143Z,53.80
2018-10-12T13:29:59.738Z,53.60
2018-10-12T13:32:09.431Z,53.30
2018-10-12T13:34:16.207Z,53.30
2018-10-12T13:36:20.616Z,52.80
2018-10-12T13:38:27.910Z,52.10
2018-10-12T13:40:35.170Z,52.10
2018-10-12T13:42:41.657Z,51.80
2018-10-12T13:44:49.474Z,51.50
2018-10-12T13:46:56.928Z,51.20
2018-10-12T13:49:05.072Z,51.40
2018-10-12T13:51:10.254Z,51.10
2018-10-12T13:53:15.050Z,51.00
2018-10-12T13:55:20.322Z,51.10
2018-10-12T13:57:26.532Z,51.20
2018-10-12T13:59:35.714Z,51.30
2018-10-12T14:01:41.844Z,51.00
2018-10-12T14:03:46.800Z,50.90
2018-10-12T14:05:53.826Z,50.60
2018-10-12T14:07:58.927Z,51.10
2018-10-12T14:10:07.123Z,51.20
2018-10-12T14:12:12.735Z,51.20
2018-10-12T14:14:18.604Z,51.20
2018-10-12T14:16:29.015Z,51.10
2018-10-12T14:18:34.139Z,51.30
2018-10-12T14:20:40.573Z,51.30
2018-10-12T14:22:49.989Z,50.70
2018-10-12T14:25:00.133Z,50.60
2018-10-12T14:27:09.194Z,50.60
2018-10-12T14:29:16.747Z,50.50
2018-10-12T14:31:22.438Z,50.40
2018-10-12T14:33:27.304Z,50.30
2018-10-12T14:35:35.520Z,50.10
2018-10-12T14:37:43.873Z,49.50
2018-10-12T14:39:48.535Z,49.40
2018-10-12T14:41:54.594Z,48.90
2018-10-12T14:44:03.252Z,48.20
2018-10-12T14:46:11.385Z,47.10
2018-10-12T14:48:21.997Z,47.30
2018-10-12T14:50:26.994Z,47.10
2018-10-12T14:52:33.837Z,46.90
2018-10-12T14:54:40.250Z,46.50
2018-10-12T14:56:49.425Z,45.70
2018-10-12T14:58:55.400Z,45.90
2018-10-12T15:01:03.783Z,45.80
2018-10-12T15:03:15.437Z,46.10
2018-10-12T15:05:21.842Z,45.70
2018-10-12T15:07:32.611Z,45.60
2018-10-12T15:09:37.532Z,45.70
2018-10-12T15:11:43.117Z,45.20
2018-10-12T15:13:48.769Z,45.10
2018-10-12T15:15:54.459Z,44.80
2018-10-12T15:18:00.392Z,45.00
2018-10-12T15:20:08.103Z,45.50
2018-10-12T15:22:14.216Z,45.20
2018-10-12T15:24:18.623Z,46.30
2018-10-12T15:26:27.284Z,45.50
2018-10-12T15:28:32.169Z,45.30
2018-10-12T15:30:38.938Z,45.40
2018-10-12T15:32:45.431Z,45.00
2018-10-12T15:34:51.113Z,45.10
2018-10-12T15:36:57.272Z,45.00
2018-10-12T15:39:03.824Z,45.10
2018-10-12T15:41:09.626Z,45.60
2018-10-12T15:43:54.971Z,46.00
2018-10-12T15:46:01.577Z,46.50
2018-10-12T15:48:07.210Z,47.20
2018-10-12T15:50:14.480Z,47.80
2018-10-12T15:52:21.666Z,48.30
2018-10-12T15:54:27.410Z,48.80
2018-10-12T15:56:34.326Z,49.10
2018-10-12T15:58:41.329Z,49.60
2018-10-12T16:00:50.851Z,49.60
2018-10-12T16:03:03.476Z,49.30
2018-10-12T16:05:09.712Z,49.20
2018-10-12T16:07:16.440Z,49.60
2018-10-12T16:09:22.734Z,50.00
2018-10-12T16:11:28.356Z,50.70
2018-10-12T16:13:37.627Z,51.40
2018-10-12T16:15:42.972Z,52.00
2018-10-12T16:17:49.310Z,52.50
2018-10-12T16:19:54.405Z,53.00
2018-10-12T16:21:59.911Z,53.30
2018-10-12T16:24:09.885Z,53.70
2018-10-12T16:26:18.465Z,54.30
2018-10-12T16:28:27.782Z,54.50
2018-10-12T16:30:35.613Z,55.00
2018-10-12T16:32:40.508Z,55.20
2018-10-12T16:34:46.367Z,55.30
2018-10-12T16:36:51.253Z,55.70
2018-10-12T16:39:00.711Z,55.70
2018-10-12T16:41:06.175Z,55.90
2018-10-12T16:43:10.432Z,56.10
2018-10-12T16:45:16.754Z,56.40
2018-10-12T16:47:23.144Z,56.50
2018-10-12T16:49:31.704Z,56.80
2018-10-12T16:51:40.697Z,57.00
2018-10-12T16:53:50.282Z,57.30
2018-10-12T16:55:56.628Z,57.30
2018-10-12T16:58:03.725Z,57.40
2018-10-12T17:00:16.881Z,57.60
2018-10-12T17:02:26.505Z,57.60
2018-10-12T17:04:35.397Z,57.70
2018-10-12T17:06:41.662Z,58.20
2018-10-12T17:08:48.370Z,59.30
2018-10-12T17:10:54.912Z,60.90
2018-10-12T17:13:03.011Z,63.50
2018-10-12T17:15:10.182Z,64.90
2018-10-12T17:17:18.307Z,65.10
2018-10-12T17:19:23.313Z,66.40
2018-10-12T17:24:30.479Z,69.60
2018-10-12T17:26:50.944Z,70.70
2018-10-12T17:29:03.934Z,71.10
2018-10-12T17:31:16.333Z,72.30
2018-10-12T17:33:22.559Z,73.50
2018-10-12T17:35:29.134Z,74.20
2018-10-12T17:37:34.844Z,74.90
2018-10-12T17:39:41.086Z,74.90
2018-10-12T17:41:47.350Z,76.10
2018-10-12T17:43:59.983Z,77.80
2018-10-12T17:46:08.744Z,78.50
2018-10-12T17:48:21.279Z,78.90
2018-10-12T17:50:29.255Z,79.80
2018-10-12T17:52:34.948Z,80.30
2018-10-12T17:54:41.219Z,80.60
2018-10-12T17:56:50.496Z,81.00
2018-10-12T17:58:57.732Z,81.50
2018-10-12T18:01:09.680Z,82.00
2018-10-12T18:03:14.416Z,82.70
2018-10-12T18:05:23.967Z,82.80
2018-10-12T18:07:34.695Z,82.90
2018-10-12T18:09:41.072Z,82.90
2018-10-12T18:11:53.015Z,83.40
2018-10-12T18:13:58.919Z,84.00
2018-10-12T18:16:16.565Z,84.70
2018-10-12T18:18:23.603Z,84.70
2018-10-12T18:20:34.136Z,84.40
2018-10-12T18:22:41.185Z,84.20
2018-10-12T18:24:47.805Z,84.20
2018-10-12T18:26:57.617Z,84.70
2018-10-12T18:29:07.254Z,85.10
2018-10-12T18:31:15.976Z,85.20
2018-10-12T18:33:22.595Z,85.70
2018-10-12T18:35:32.528Z,86.10
2018-10-12T18:37:45.976Z,86.60
2018-10-12T18:39:52.807Z,86.40
2018-10-12T18:41:59.396Z,86.20
2018-10-12T18:44:15.895Z,85.90
2018-10-12T18:46:21.805Z,86.20
2018-10-12T18:48:33.207Z,86.70
2018-10-12T18:50:37.942Z,86.40
2018-10-12T18:52:44.448Z,86.00
2018-10-12T18:54:52.779Z,85.30
2018-10-12T18:56:59.791Z,84.40
2018-10-12T18:59:08.647Z,84.10
2018-10-12T19:01:15.912Z,84.10
2018-10-12T19:03:22.734Z,84.40
2018-10-12T19:05:27.825Z,84.40
2018-10-12T19:07:34.778Z,84.40
2018-10-12T19:09:41.656Z,83.90
2018-10-12T19:11:46.779Z,84.00
2018-10-12T19:13:55.562Z,84.10
2018-10-12T19:16:00.456Z,83.60
2018-10-12T19:18:07.679Z,83.40
2018-10-12T19:20:14.537Z,83.50
2018-10-12T19:22:47.729Z,83.40
2018-10-12T19:24:57.241Z,83.50
2018-10-12T19:27:05.265Z,83.20
2018-10-12T19:29:13.508Z,83.50
2018-10-12T19:31:21.419Z,84.20
2018-10-12T19:33:28.541Z,85.70
2018-10-12T19:35:35.683Z,85.00
2018-10-12T19:37:44.832Z,84.80
2018-10-12T19:39:52.153Z,85.00
2018-10-12T19:41:57.331Z,84.40
2018-10-12T19:44:07.680Z,84.20
2018-10-12T19:46:14.240Z,84.20
2018-10-12T19:48:26.062Z,84.00
2018-10-12T19:50:43.849Z,84.60
2018-10-12T19:52:51.820Z,85.20
2018-10-12T19:54:58.085Z,86.20
2018-10-12T19:57:09.064Z,86.40
2018-10-12T19:59:15.340Z,86.30
2018-10-12T20:01:20.348Z,86.30
2018-10-12T20:03:29.970Z,86.00
2018-10-12T20:05:38.344Z,85.80
2018-10-12T20:07:45.922Z,85.60
2018-10-12T20:09:54.775Z,85.70
2018-10-12T20:12:06.482Z,85.90
2018-10-12T20:14:14.602Z,86.30
2018-10-12T20:16:21.097Z,86.60
2018-10-12T20:18:26.190Z,87.10
2018-10-12T20:20:32.166Z,87.10
2018-10-12T20:22:39.322Z,87.30
2018-10-12T20:24:48.191Z,87.70
2018-10-12T20:26:53.890Z,88.40
2018-10-12T20:29:05.554Z,89.00
2018-10-12T20:31:11.839Z,89.80
2018-10-12T20:33:19.798Z,90.00
2018-10-12T20:35:26.616Z,89.70
2018-10-12T20:37:31.451Z,88.70
2018-10-12T20:39:43.195Z,88.50
2018-10-12T20:41:58.292Z,87.90
2018-10-12T20:44:05.897Z,87.80
2018-10-12T20:46:19.274Z,88.20
2018-10-12T20:48:26.846Z,87.60
2018-10-12T20:50:37.747Z,87.50
2018-10-12T20:52:42.719Z,87.00
2018-10-12T20:54:54.491Z,86.90
2018-10-12T20:57:03.723Z,86.70
2018-10-12T20:59:17.061Z,86.60
2018-10-12T21:01:23.732Z,86.40
2018-10-12T21:03:34.299Z,86.70
2018-10-12T21:05:39.936Z,87.00
2018-10-12T21:07:47.593Z,87.30
2018-10-12T21:09:53.356Z,87.90
2018-10-12T21:12:00.309Z,88.00
2018-10-12T21:14:06.261Z,87.70
2018-10-12T21:16:14.308Z,87.70
2018-10-12T21:18:20.280Z,87.80
2018-10-12T21:20:26.527Z,87.80
2018-10-12T21:22:31.292Z,87.90
2018-10-12T21:24:42.451Z,88.10
2018-10-12T21:26:48.404Z,88.20
2018-10-12T21:29:04.491Z,88.50
2018-10-12T21:31:16.191Z,88.80
2018-10-12T21:33:20.767Z,88.80
2018-10-12T21:35:27.333Z,89.10
2018-10-12T21:37:36.117Z,89.20
2018-10-12T21:39:40.568Z,89.50
2018-10-12T21:41:51.162Z,89.60
2018-10-12T21:43:57.146Z,89.70
2018-10-12T21:46:06.303Z,89.70
2018-10-12T21:48:22.996Z,89.60
2018-10-12T21:50:32.275Z,89.90
2018-10-12T21:52:38.485Z,90.00
2018-10-12T21:54:46.125Z,89.80
2018-10-12T21:56:51.637Z,89.70
2018-10-12T21:59:04.443Z,89.50
2018-10-12T22:01:18.017Z,89.20
2018-10-12T22:03:26.705Z,89.10
2018-10-12T22:05:32.016Z,89.20
2018-10-12T22:15:37.795Z,90.10
2018-10-12T22:17:45.742Z,90.10
2018-10-12T22:19:51.603Z,90.10
2018-10-12T22:21:57.784Z,90.10
2018-10-12T22:24:03.709Z,90.20
2018-10-12T22:26:08.774Z,90.10
2018-10-12T22:28:13.755Z,90.20
2018-10-12T22:30:20.462Z,90.40
2018-10-12T22:32:31.873Z,90.50
2018-10-12T22:34:36.432Z,90.40
2018-10-12T22:36:41.416Z,90.50
2018-10-12T22:38:46.585Z,90.50
2018-10-12T22:40:52.678Z,90.60
2018-10-12T22:43:06.917Z,90.40
2018-10-12T22:45:37.333Z,90.30
2018-10-12T22:47:50.398Z,90.30
2018-10-12T22:52:23.836Z,90.80
2018-10-12T22:54:30.532Z,90.90
2018-10-12T22:56:43.937Z,91.20
2018-10-12T22:59:08.435Z,91.10
2018-10-12T23:01:14.203Z,91.10
2018-10-12T23:03:21.803Z,91.10
2018-10-12T23:05:34.984Z,91.00
2018-10-12T23:07:40.564Z,91.10
2018-10-12T23:09:47.333Z,91.10
2018-10-12T23:11:56.755Z,91.10
2018-10-12T23:14:03.676Z,91.20
2018-10-12T23:16:09.633Z,91.20
2018-10-12T23:18:18.600Z,91.10
2018-10-12T23:20:27.000Z,91.10
2018-10-12T23:22:33.242Z,90.90
2018-10-12T23:24:56.589Z,90.90
2018-10-12T23:29:48.522Z,90.70
2018-10-12T23:32:33.156Z,90.60
2018-10-12T23:38:22.647Z,90.50
2018-10-12T23:41:19.503Z,90.50
2018-10-12T23:44:12.171Z,90.70
2018-10-12T23:46:17.921Z,90.60
2018-10-12T23:48:22.711Z,90.40
2018-10-12T23:50:27.281Z,90.20
2018-10-12T23:52:31.419Z,90.20
2018-10-12T23:54:35.777Z,90.40
2018-10-12T23:56:40.929Z,90.40
2018-10-12T23:58:46.046Z,90.20
